createdAt,value
2022-11-13T00:00:19.328Z,82.87
2022-11-13T00:01:17.906Z,82.86
2022-11-13T00:02:17.561Z,82.81
2022-11-13T00:03:17.673Z,82.83
2022-11-13T00:04:17.447Z,82.74
2022-11-13T00:05:17.395Z,82.80
2022-11-13T00:06:17.013Z,82.81
2022-11-13T00:07:17.377Z,82.75
2022-11-13T00:08:17.138Z,82.71
2022-11-13T00:09:16.954Z,82.73
2022-11-13T00:10:18.035Z,82.75
2022-11-13T00:11:17.368Z,82.65
2022-11-13T00:12:17.524Z,82.51
2022-11-13T00:13:17.462Z,82.51
2022-11-13T00:14:17.431Z,82.47
2022-11-13T00:15:17.655Z,82.42
2022-11-13T00:16:17.812Z,82.39
2022-11-13T00:17:18.408Z,82.24
2022-11-13T00:18:17.219Z,82.11
2022-11-13T00:19:17.583Z,82.12
2022-11-13T00:20:17.499Z,82.12
2022-11-13T00:21:17.516Z,82.13
2022-11-13T00:22:17.342Z,82.17
2022-11-13T00:23:17.515Z,82.24
2022-11-13T00:24:18.086Z,82.28
2022-11-13T00:25:17.344Z,82.24
2022-11-13T00:26:17.614Z,82.23
2022-11-13T00:27:17.990Z,82.11
2022-11-13T00:28:16.909Z,82.11
2022-11-13T00:29:17.912Z,82.11
2022-11-13T00:30:25.358Z,81.93
2022-11-13T00:31:17.314Z,81.93
2022-11-13T00:32:17.418Z,81.84
2022-11-13T00:33:38.363Z,81.84
2022-11-13T00:34:52.308Z,81.79
2022-11-13T00:35:17.447Z,81.79
2022-11-13T00:37:17.242Z,81.87
2022-11-13T00:38:16.914Z,81.89
2022-11-13T00:39:17.623Z,81.78
2022-11-13T00:40:17.110Z,81.79
2022-11-13T00:41:17.180Z,81.84
2022-11-13T00:42:17.316Z,82.02
2022-11-13T00:43:17.074Z,82.04
2022-11-13T00:44:17.051Z,82.01
2022-11-13T00:45:17.007Z,81.94
2022-11-13T00:46:16.483Z,81.96
2022-11-13T00:47:17.586Z,82.01
2022-11-13T00:48:17.439Z,81.98
2022-11-13T00:49:17.261Z,82.01
2022-11-13T00:50:17.200Z,82.03
2022-11-13T00:51:17.271Z,82.01
2022-11-13T00:52:17.017Z,82.05
2022-11-13T00:53:23.895Z,82.13
2022-11-13T00:54:17.513Z,82.13
2022-11-13T00:55:17.655Z,82.13
2022-11-13T00:56:17.622Z,82.13
2022-11-13T00:57:17.582Z,82.16
2022-11-13T00:58:16.954Z,82.28
2022-11-13T00:59:17.842Z,82.26
2022-11-13T01:00:27.455Z,82.25
2022-11-13T01:01:19.598Z,82.24
2022-11-13T01:02:17.439Z,82.22
2022-11-13T01:03:17.547Z,82.25
2022-11-13T01:04:17.234Z,82.32
2022-11-13T01:05:15.285Z,82.40
2022-11-13T01:06:17.368Z,82.46
2022-11-13T01:07:17.553Z,82.48
2022-11-13T01:08:17.360Z,82.56
2022-11-13T01:09:17.575Z,82.55
2022-11-13T01:10:17.059Z,82.43
2022-11-13T01:11:16.953Z,82.51
2022-11-13T01:12:17.609Z,82.54
2022-11-13T01:13:17.275Z,82.51
2022-11-13T01:14:17.112Z,82.57
2022-11-13T01:15:17.066Z,82.60
2022-11-13T01:16:16.648Z,82.60
2022-11-13T01:17:17.390Z,82.71
2022-11-13T01:18:17.203Z,82.76
2022-11-13T01:19:17.158Z,82.76
2022-11-13T01:20:17.260Z,82.87
2022-11-13T01:21:17.172Z,82.93
2022-11-13T01:22:16.804Z,82.92
2022-11-13T01:23:17.692Z,82.95
2022-11-13T01:24:16.971Z,83.03
2022-11-13T01:25:18.127Z,83.09
2022-11-13T01:26:17.577Z,83.18
2022-11-13T01:27:17.325Z,83.36
2022-11-13T01:28:16.897Z,83.52
2022-11-13T01:29:17.758Z,83.62
2022-11-13T01:30:17.505Z,83.56
2022-11-13T01:31:17.321Z,83.60
2022-11-13T01:32:17.187Z,83.62
2022-11-13T01:33:16.941Z,83.67
2022-11-13T01:34:17.385Z,83.68
2022-11-13T01:35:17.390Z,83.67
2022-11-13T01:36:17.067Z,83.66
2022-11-13T01:37:17.123Z,83.68
2022-11-13T01:38:16.940Z,83.77
2022-11-13T01:39:17.903Z,83.87
2022-11-13T01:40:17.628Z,83.81
2022-11-13T01:41:22.803Z,83.76
2022-11-13T01:42:17.009Z,83.80
2022-11-13T01:43:17.175Z,83.77
2022-11-13T01:44:16.853Z,83.74
2022-11-13T01:45:17.879Z,83.67
2022-11-13T01:46:17.904Z,83.68
2022-11-13T01:47:18.380Z,83.59
2022-11-13T01:48:17.395Z,83.55
2022-11-13T01:49:17.557Z,83.51
2022-11-13T01:50:17.480Z,83.44
2022-11-13T01:51:17.339Z,83.45
2022-11-13T01:52:17.350Z,83.49
2022-11-13T01:53:17.323Z,83.47
2022-11-13T01:54:17.333Z,83.48
2022-11-13T01:55:17.501Z,83.47
2022-11-13T01:56:17.636Z,83.37
2022-11-13T01:57:17.457Z,83.39
2022-11-13T01:58:17.150Z,83.37
2022-11-13T01:59:17.336Z,83.31
2022-11-13T02:00:18.223Z,83.26
2022-11-13T02:01:17.236Z,83.22
2022-11-13T02:02:16.716Z,83.16
2022-11-13T02:03:17.685Z,83.15
2022-11-13T02:04:17.533Z,83.05
2022-11-13T02:05:17.737Z,83.01
2022-11-13T02:06:17.248Z,82.97
2022-11-13T02:07:17.727Z,82.93
2022-11-13T02:08:18.471Z,82.96
2022-11-13T02:09:17.499Z,82.97
2022-11-13T02:10:17.350Z,82.89
2022-11-13T02:11:17.221Z,82.78
2022-11-13T02:12:17.126Z,82.72
2022-11-13T02:13:17.238Z,82.72
2022-11-13T02:14:17.166Z,82.74
2022-11-13T02:15:17.693Z,82.79
2022-11-13T02:16:17.481Z,82.72
2022-11-13T02:17:17.952Z,82.66
2022-11-13T02:18:17.561Z,82.55
2022-11-13T02:19:17.468Z,82.45
2022-11-13T02:20:17.706Z,82.47
2022-11-13T02:21:17.794Z,82.53
2022-11-13T02:22:17.438Z,82.55
2022-11-13T02:23:17.470Z,82.61
2022-11-13T02:24:17.451Z,82.53
2022-11-13T02:25:18.008Z,82.50
2022-11-13T02:26:17.045Z,82.52
2022-11-13T02:27:17.259Z,82.55
2022-11-13T02:28:17.197Z,82.56
2022-11-13T02:29:17.343Z,82.55
2022-11-13T02:31:17.346Z,82.53
2022-11-13T02:32:16.969Z,82.46
2022-11-13T02:33:18.042Z,82.44
2022-11-13T02:34:17.189Z,82.43
2022-11-13T02:35:17.433Z,82.36
2022-11-13T02:36:17.273Z,82.33
2022-11-13T02:37:17.061Z,82.37
2022-11-13T02:38:16.621Z,82.41
2022-11-13T02:39:17.868Z,82.33
2022-11-13T02:40:17.953Z,82.26
2022-11-13T02:41:18.103Z,82.20
2022-11-13T02:42:17.045Z,82.21
2022-11-13T02:43:17.063Z,82.15
2022-11-13T02:44:16.627Z,82.12
2022-11-13T02:45:17.746Z,82.16
2022-11-13T02:46:17.297Z,82.23
2022-11-13T02:47:17.379Z,82.17
2022-11-13T02:48:17.017Z,82.12
2022-11-13T02:49:17.257Z,82.00
2022-11-13T02:50:17.385Z,82.02
2022-11-13T02:51:17.520Z,82.12
2022-11-13T02:52:17.313Z,82.20
2022-11-13T02:53:17.472Z,82.21
2022-11-13T02:55:17.484Z,82.08
2022-11-13T02:56:17.267Z,82.06
2022-11-13T02:57:17.222Z,82.07
2022-11-13T02:58:17.112Z,82.07
2022-11-13T02:59:17.303Z,82.05
2022-11-13T03:00:20.552Z,82.04
2022-11-13T03:01:17.839Z,81.97
2022-11-13T03:02:17.487Z,81.95
2022-11-13T03:03:34.282Z,81.93
2022-11-13T03:04:17.550Z,81.91
2022-11-13T03:05:20.169Z,81.97
2022-11-13T03:06:17.335Z,82.01
2022-11-13T03:07:17.316Z,82.04
2022-11-13T03:08:16.767Z,82.03
2022-11-13T03:09:17.707Z,82.03
2022-11-13T03:10:17.176Z,81.98
2022-11-13T03:11:17.183Z,82.02
2022-11-13T03:12:16.779Z,82.13
2022-11-13T03:13:17.580Z,82.17
2022-11-13T03:14:17.242Z,82.17
2022-11-13T03:15:17.561Z,82.20
2022-11-13T03:16:17.406Z,82.25
2022-11-13T03:17:17.473Z,82.29
2022-11-13T03:18:17.368Z,82.30
2022-11-13T03:19:17.677Z,82.33
2022-11-13T03:20:17.484Z,82.24
2022-11-13T03:21:17.572Z,82.13
2022-11-13T03:22:17.619Z,82.12
2022-11-13T03:23:18.053Z,82.07
2022-11-13T03:24:16.711Z,82.05
2022-11-13T03:25:17.919Z,82.01
2022-11-13T03:26:17.875Z,82
2022-11-13T03:27:18.065Z,82.04
2022-11-13T03:28:16.920Z,82.09
2022-11-13T03:29:17.679Z,82.10
2022-11-13T03:30:17.559Z,82.05
2022-11-13T03:31:17.636Z,82.10
2022-11-13T03:32:17.190Z,82.12
2022-11-13T03:33:17.382Z,82.06
2022-11-13T03:34:17.216Z,82.04
2022-11-13T03:35:17.291Z,82.03
2022-11-13T03:36:16.896Z,82.07
2022-11-13T03:37:17.788Z,82.07
2022-11-13T03:38:17.223Z,82.10
2022-11-13T03:39:17.344Z,82.12
2022-11-13T03:40:17.477Z,82.09
2022-11-13T03:41:17.233Z,82.17
2022-11-13T03:42:16.959Z,82.30
2022-11-13T03:43:17.695Z,82.39
2022-11-13T03:44:16.997Z,82.41
2022-11-13T03:45:17.373Z,82.45
2022-11-13T03:46:17.179Z,82.41
2022-11-13T03:47:17.164Z,82.33
2022-11-13T03:48:16.868Z,82.20
2022-11-13T03:49:17.775Z,82.22
2022-11-13T03:50:17.863Z,82.22
2022-11-13T03:51:18.152Z,82.22
2022-11-13T03:52:16.748Z,82.26
2022-11-13T03:53:17.571Z,82.25
2022-11-13T03:54:17.456Z,82.25
2022-11-13T03:55:19.729Z,82.23
2022-11-13T03:56:17.891Z,82.29
2022-11-13T03:57:17.819Z,82.36
2022-11-13T03:58:17.298Z,82.33
2022-11-13T03:59:17.341Z,82.35
2022-11-13T04:00:18.208Z,82.37
2022-11-13T04:01:17.703Z,82.33
2022-11-13T04:02:17.537Z,82.32
2022-11-13T04:03:17.641Z,82.39
2022-11-13T04:04:17.601Z,82.48
2022-11-13T04:05:22.479Z,82.45
2022-11-13T04:06:17.645Z,82.42
2022-11-13T04:07:17.657Z,82.47
2022-11-13T04:08:17.919Z,82.44
2022-11-13T04:09:17.905Z,82.42
2022-11-13T04:10:17.881Z,82.47
2022-11-13T04:11:18.083Z,82.46
2022-11-13T04:12:17.013Z,82.40
2022-11-13T04:13:17.382Z,82.41
2022-11-13T04:14:17.227Z,82.44
2022-11-13T04:15:17.567Z,82.44
2022-11-13T04:16:17.117Z,82.49
2022-11-13T04:17:17.348Z,82.46
2022-11-13T04:18:17.291Z,82.49
2022-11-13T04:19:17.552Z,82.49
2022-11-13T04:20:17.508Z,82.56
2022-11-13T04:21:17.491Z,82.60
2022-11-13T04:22:17.350Z,82.59
2022-11-13T04:23:17.681Z,82.54
2022-11-13T04:24:16.414Z,82.48
2022-11-13T04:25:17.657Z,82.44
2022-11-13T04:26:17.380Z,82.37
2022-11-13T04:27:17.683Z,82.34
2022-11-13T04:28:17.182Z,82.36
2022-11-13T04:29:17.404Z,82.30
2022-11-13T04:30:19.077Z,82.22
2022-11-13T04:31:17.071Z,82.23
2022-11-13T04:32:16.836Z,82.22
2022-11-13T04:33:17.746Z,82.21
2022-11-13T04:34:17.589Z,82.19
2022-11-13T04:35:17.620Z,82.17
2022-11-13T04:36:17.447Z,82.16
2022-11-13T04:37:17.226Z,82.17
2022-11-13T04:38:17.159Z,82.11
2022-11-13T04:39:17.477Z,82.11
2022-11-13T04:40:17.407Z,82.16
2022-11-13T04:41:17.590Z,82.19
2022-11-13T04:42:17.318Z,82.26
2022-11-13T04:43:17.181Z,82.16
2022-11-13T04:44:16.972Z,82.18
2022-11-13T04:46:03.743Z,82.11
2022-11-13T04:46:17.443Z,82.11
2022-11-13T04:47:17.641Z,82.11
2022-11-13T04:48:17.654Z,82.13
2022-11-13T04:49:17.743Z,82.10
2022-11-13T04:50:17.875Z,82.02
2022-11-13T04:51:18.036Z,82.09
2022-11-13T04:52:17.137Z,82.18
2022-11-13T04:53:17.374Z,82.23
2022-11-13T04:54:17.216Z,82.25
2022-11-13T04:55:17.558Z,82.23
2022-11-13T04:56:17.220Z,82.26
2022-11-13T04:57:17.464Z,82.26
2022-11-13T04:58:17.343Z,82.18
2022-11-13T04:59:17.414Z,82.19
2022-11-13T05:00:18.390Z,82.27
2022-11-13T05:01:17.677Z,82.28
2022-11-13T05:02:17.199Z,82.26
2022-11-13T05:03:17.486Z,82.26
2022-11-13T05:04:17.499Z,82.19
2022-11-13T05:05:17.802Z,82.12
2022-11-13T05:06:17.622Z,82.06
2022-11-13T05:07:17.836Z,82.05
2022-11-13T05:08:17.467Z,81.98
2022-11-13T05:09:17.739Z,82
2022-11-13T05:10:17.649Z,82.06
2022-11-13T05:11:17.480Z,82.07
2022-11-13T05:12:17.052Z,82.04
2022-11-13T05:13:17.313Z,82.00
2022-11-13T05:14:16.826Z,82.04
2022-11-13T05:15:18.236Z,82.08
2022-11-13T05:17:18.041Z,82.00
2022-11-13T05:18:16.944Z,82.00
2022-11-13T05:19:18.018Z,82.08
2022-11-13T05:20:16.949Z,82.12
2022-11-13T05:21:18.102Z,82.05
2022-11-13T05:22:17.025Z,81.97
2022-11-13T05:23:16.996Z,81.88
2022-11-13T05:24:17.140Z,81.91
2022-11-13T05:25:17.523Z,81.91
2022-11-13T05:26:17.096Z,81.93
2022-11-13T05:27:23.368Z,81.95
2022-11-13T05:28:17.398Z,81.95
2022-11-13T05:29:17.562Z,81.97
2022-11-13T05:30:17.654Z,82.02
2022-11-13T05:31:17.835Z,82.03
2022-11-13T05:32:17.854Z,82.02
2022-11-13T05:33:17.995Z,81.99
2022-11-13T05:34:16.993Z,81.93
2022-11-13T05:35:17.278Z,81.90
2022-11-13T05:36:17.122Z,81.94
2022-11-13T05:37:17.296Z,81.91
2022-11-13T05:38:17.249Z,81.82
2022-11-13T05:39:17.568Z,81.78
2022-11-13T05:40:23.027Z,81.79
2022-11-13T05:41:17.443Z,81.77
2022-11-13T05:42:31.239Z,81.81
2022-11-13T05:43:17.562Z,81.81
2022-11-13T05:44:17.274Z,81.86
2022-11-13T05:45:17.303Z,81.91
2022-11-13T05:46:17.543Z,81.89
2022-11-13T05:47:17.960Z,81.81
2022-11-13T05:48:17.690Z,81.74
2022-11-13T05:49:17.729Z,81.79
2022-11-13T05:50:17.755Z,81.72
2022-11-13T05:51:17.869Z,81.73
2022-11-13T05:52:18.000Z,81.76
2022-11-13T05:53:17.335Z,81.82
2022-11-13T05:54:17.071Z,81.80
2022-11-13T05:55:19.245Z,81.80
2022-11-13T05:56:16.996Z,81.79
2022-11-13T05:57:17.555Z,81.80
2022-11-13T05:58:17.242Z,81.80
2022-11-13T05:59:17.321Z,81.82
2022-11-13T06:00:18.497Z,81.84
2022-11-13T06:01:17.812Z,81.83
2022-11-13T06:02:17.704Z,81.86
2022-11-13T06:03:18.007Z,81.88
2022-11-13T06:04:16.933Z,81.92
2022-11-13T06:05:18.153Z,81.94
2022-11-13T06:06:17.441Z,81.97
2022-11-13T06:07:17.766Z,82.05
2022-11-13T06:08:17.782Z,82.04
2022-11-13T06:09:18.411Z,81.98
2022-11-13T06:10:18.113Z,81.94
2022-11-13T06:11:17.415Z,81.91
2022-11-13T06:12:17.649Z,81.95
2022-11-13T06:13:17.813Z,82.02
2022-11-13T06:14:17.459Z,82.05
2022-11-13T06:15:17.809Z,82.11
2022-11-13T06:16:18.379Z,82.10
2022-11-13T06:17:17.643Z,82.04
2022-11-13T06:18:18.185Z,81.94
2022-11-13T06:19:17.232Z,81.93
2022-11-13T06:20:17.406Z,81.95
2022-11-13T06:21:17.779Z,81.91
2022-11-13T06:22:17.791Z,81.91
2022-11-13T06:23:17.731Z,81.89
2022-11-13T06:24:17.653Z,81.93
2022-11-13T06:25:18.009Z,81.97
2022-11-13T06:26:17.302Z,81.95
2022-11-13T06:27:17.968Z,81.90
2022-11-13T06:28:17.066Z,81.87
2022-11-13T06:29:17.629Z,82.01
2022-11-13T06:30:17.831Z,82.08
2022-11-13T06:31:18.114Z,82.12
2022-11-13T06:32:17.188Z,82.14
2022-11-13T06:33:17.574Z,82.15
2022-11-13T06:34:17.672Z,82.08
2022-11-13T06:35:17.677Z,82.08
2022-11-13T06:36:17.309Z,82.12
2022-11-13T06:37:17.266Z,82.18
2022-11-13T06:38:17.335Z,82.19
2022-11-13T06:39:17.630Z,82.19
2022-11-13T06:40:17.892Z,82.17
2022-11-13T06:41:17.935Z,82.21
2022-11-13T06:42:18.237Z,82.22
2022-11-13T06:43:18.219Z,82.12
2022-11-13T06:44:17.663Z,82.07
2022-11-13T06:45:18.532Z,82.10
2022-11-13T06:46:50.485Z,82.37
2022-11-13T06:47:17.688Z,82.37
2022-11-13T06:48:17.396Z,82.37
2022-11-13T06:49:17.451Z,82.32
2022-11-13T06:50:17.264Z,82.30
2022-11-13T06:51:17.546Z,82.26
2022-11-13T06:52:17.235Z,82.19
2022-11-13T06:53:17.134Z,82.28
2022-11-13T06:54:16.936Z,82.41
2022-11-13T06:55:18.032Z,82.45
2022-11-13T06:56:16.445Z,82.44
2022-11-13T06:57:17.330Z,82.44
2022-11-13T06:58:17.084Z,82.51
2022-11-13T06:59:17.412Z,82.47
2022-11-13T07:00:18.230Z,82.50
2022-11-13T07:01:17.676Z,82.45
2022-11-13T07:02:17.018Z,82.39
2022-11-13T07:03:17.324Z,82.38
2022-11-13T07:04:17.079Z,82.40
2022-11-13T07:05:17.480Z,82.34
2022-11-13T07:06:17.383Z,82.35
2022-11-13T07:07:17.744Z,82.38
2022-11-13T07:08:17.354Z,82.43
2022-11-13T07:09:17.739Z,82.47
2022-11-13T07:10:17.691Z,82.52
2022-11-13T07:11:17.541Z,82.50
2022-11-13T07:12:17.308Z,82.50
2022-11-13T07:13:17.283Z,82.51
2022-11-13T07:14:17.315Z,82.59
2022-11-13T07:15:17.406Z,82.66
2022-11-13T07:17:17.517Z,82.70
2022-11-13T07:18:21.507Z,82.76
2022-11-13T07:19:18.002Z,82.80
2022-11-13T07:20:17.510Z,82.85
2022-11-13T07:21:17.488Z,82.89
2022-11-13T07:22:17.235Z,82.88
2022-11-13T07:23:17.353Z,82.90
2022-11-13T07:25:17.676Z,83.00
2022-11-13T07:26:17.801Z,82.98
2022-11-13T07:27:17.867Z,83.01
2022-11-13T07:28:18.054Z,82.96
2022-11-13T07:29:17.338Z,82.96
2022-11-13T07:30:17.556Z,82.96
2022-11-13T07:31:17.633Z,83.02
2022-11-13T07:32:17.487Z,83.08
2022-11-13T07:33:17.547Z,83.10
2022-11-13T07:34:17.461Z,83.16
2022-11-13T07:35:17.582Z,83.21
2022-11-13T07:36:17.744Z,83.19
2022-11-13T07:37:17.620Z,83.17
2022-11-13T07:38:17.381Z,83.29
2022-11-13T07:39:17.571Z,83.34
2022-11-13T07:40:17.735Z,83.41
2022-11-13T07:41:17.980Z,83.49
2022-11-13T07:42:16.562Z,83.57
2022-11-13T07:43:18.058Z,83.62
2022-11-13T07:44:47.725Z,83.64
2022-11-13T07:45:17.677Z,83.67
2022-11-13T07:46:17.376Z,83.75
2022-11-13T07:47:17.230Z,83.76
2022-11-13T07:48:16.894Z,83.89
2022-11-13T07:49:17.796Z,83.94
2022-11-13T07:50:17.580Z,83.98
2022-11-13T07:51:17.546Z,84.06
2022-11-13T07:52:17.493Z,84.18
2022-11-13T07:53:17.868Z,84.34
2022-11-13T07:54:17.376Z,84.40
2022-11-13T07:55:17.498Z,84.49
2022-11-13T07:56:21.852Z,84.54
2022-11-13T07:57:17.319Z,84.56
2022-11-13T07:58:16.956Z,84.52
2022-11-13T07:59:18.141Z,84.60
2022-11-13T08:00:17.998Z,84.76
2022-11-13T08:01:31.176Z,84.85
2022-11-13T08:02:16.930Z,84.85
2022-11-13T08:03:18.132Z,84.87
2022-11-13T08:04:17.312Z,84.93
2022-11-13T08:05:17.455Z,84.99
2022-11-13T08:06:17.676Z,84.90
2022-11-13T08:07:18.239Z,85.01
2022-11-13T08:08:17.269Z,85.11
2022-11-13T08:09:17.718Z,85.08
2022-11-13T08:10:17.484Z,85.20
2022-11-13T08:11:17.737Z,85.26
2022-11-13T08:12:17.964Z,85.37
2022-11-13T08:13:18.230Z,85.48
2022-11-13T08:14:17.464Z,85.40
2022-11-13T08:15:20.114Z,85.46
2022-11-13T08:16:17.395Z,85.56
2022-11-13T08:17:17.571Z,85.54
2022-11-13T08:18:17.168Z,85.65
2022-11-13T08:19:17.405Z,85.66
2022-11-13T08:20:17.281Z,85.70
2022-11-13T08:21:21.538Z,85.75
2022-11-13T08:22:17.510Z,85.83
2022-11-13T08:23:17.700Z,85.77
2022-11-13T08:24:17.542Z,85.79
2022-11-13T08:25:17.865Z,85.76
2022-11-13T08:26:17.763Z,85.90
2022-11-13T08:27:17.919Z,85.94
2022-11-13T08:28:19.928Z,85.98
2022-11-13T08:29:18.409Z,85.88
2022-11-13T08:30:17.773Z,85.80
2022-11-13T08:31:36.878Z,85.98
2022-11-13T08:32:17.904Z,85.98
2022-11-13T08:33:18.281Z,86.08
2022-11-13T08:34:17.276Z,86.15
2022-11-13T08:35:28.129Z,86.10
2022-11-13T08:36:16.995Z,86.10
2022-11-13T08:37:17.333Z,86.04
2022-11-13T08:38:17.078Z,85.94
2022-11-13T08:39:17.579Z,85.87
2022-11-13T08:40:17.419Z,85.84
2022-11-13T08:41:17.473Z,85.80
2022-11-13T08:42:17.324Z,85.57
2022-11-13T08:43:17.478Z,85.44
2022-11-13T08:44:17.537Z,85.51
2022-11-13T08:45:17.727Z,85.54
2022-11-13T08:46:17.856Z,85.53
2022-11-13T08:47:17.881Z,85.57
2022-11-13T08:48:18.223Z,85.45
2022-11-13T08:49:18.002Z,85.12
2022-11-13T08:50:17.221Z,84.98
2022-11-13T08:52:17.223Z,84.66
2022-11-13T08:53:17.279Z,84.29
2022-11-13T08:54:17.223Z,84.25
2022-11-13T08:55:17.403Z,84.25
2022-11-13T08:56:17.387Z,84.16
2022-11-13T08:57:17.367Z,84.32
2022-11-13T08:58:17.319Z,84.24
2022-11-13T08:59:17.501Z,84.24
2022-11-13T09:00:18.532Z,84.17
2022-11-13T09:01:18.091Z,84.03
2022-11-13T09:02:17.192Z,83.68
2022-11-13T09:03:17.503Z,83.54
2022-11-13T09:04:17.549Z,83.39
2022-11-13T09:05:17.654Z,83.13
2022-11-13T09:06:18.032Z,83.03
2022-11-13T09:07:17.604Z,83.02
2022-11-13T09:08:17.780Z,82.91
2022-11-13T09:09:17.829Z,82.75
2022-11-13T09:10:17.952Z,82.96
2022-11-13T09:11:18.316Z,82.85
2022-11-13T09:12:17.452Z,82.53
2022-11-13T09:13:16.816Z,82.28
2022-11-13T09:14:17.602Z,82.18
2022-11-13T09:15:23.224Z,81.98
2022-11-13T09:16:17.435Z,81.97
2022-11-13T09:17:17.687Z,81.89
2022-11-13T09:18:17.741Z,81.65
2022-11-13T09:19:17.833Z,81.52
2022-11-13T09:20:22.896Z,81.62
2022-11-13T09:21:17.203Z,81.57
2022-11-13T09:22:17.500Z,81.48
2022-11-13T09:23:17.577Z,81.47
2022-11-13T09:24:17.867Z,81.39
2022-11-13T09:25:18.064Z,81.48
2022-11-13T09:26:17.072Z,81.52
2022-11-13T09:27:17.088Z,81.34
2022-11-13T09:28:17.060Z,81.44
2022-11-13T09:29:17.378Z,81.33
2022-11-13T09:30:17.575Z,81.16
2022-11-13T09:31:17.660Z,81.44
2022-11-13T09:32:17.926Z,81.59
2022-11-13T09:33:18.012Z,81.61
2022-11-13T09:34:17.083Z,82.03
2022-11-13T09:35:17.395Z,82.21
2022-11-13T09:36:17.184Z,82.61
2022-11-13T09:37:17.811Z,83.11
2022-11-13T09:38:18.192Z,83.21
2022-11-13T09:39:17.363Z,83.55
2022-11-13T09:40:17.078Z,83.74
2022-11-13T09:41:17.257Z,83.94
2022-11-13T09:42:17.554Z,83.57
2022-11-13T09:43:17.355Z,83.26
2022-11-13T09:44:17.420Z,83.25
2022-11-13T09:46:17.419Z,82.89
2022-11-13T09:47:17.779Z,83.01
2022-11-13T09:48:17.380Z,83.17
2022-11-13T09:49:17.475Z,82.79
2022-11-13T09:50:17.505Z,82.84
2022-11-13T09:51:17.651Z,82.23
2022-11-13T09:52:17.745Z,81.81
2022-11-13T09:53:17.770Z,81.41
2022-11-13T09:54:17.570Z,80.97
2022-11-13T09:55:17.800Z,80.41
2022-11-13T09:56:17.577Z,80.02
2022-11-13T09:57:21.761Z,79.68
2022-11-13T09:58:17.437Z,79.50
2022-11-13T09:59:17.534Z,79.39
2022-11-13T10:00:18.460Z,79.17
2022-11-13T10:01:18.223Z,78.97
2022-11-13T10:02:17.396Z,78.76
2022-11-13T10:03:24.004Z,78.31
2022-11-13T10:04:20.830Z,77.86
2022-11-13T10:05:18.201Z,77.60
2022-11-13T10:06:22.262Z,77.59
2022-11-13T10:07:18.304Z,77.49
2022-11-13T10:08:17.452Z,77.48
2022-11-13T10:09:17.450Z,77.41
2022-11-13T10:10:17.346Z,77.07
2022-11-13T10:11:17.720Z,76.73
2022-11-13T10:12:18.070Z,76.40
2022-11-13T10:13:17.289Z,76.37
2022-11-13T10:14:17.520Z,76.45
2022-11-13T10:15:17.704Z,76.34
2022-11-13T10:16:17.502Z,76.48
2022-11-13T10:17:18.238Z,76.58
2022-11-13T10:18:16.926Z,76.68
2022-11-13T10:19:18.118Z,76.37
2022-11-13T10:20:17.195Z,76.10
2022-11-13T10:21:17.585Z,76.03
2022-11-13T10:22:39.107Z,75.37
2022-11-13T10:23:17.483Z,75.37
2022-11-13T10:24:20.702Z,75.15
2022-11-13T10:25:17.988Z,75.03
2022-11-13T10:26:17.332Z,74.91
2022-11-13T10:27:17.665Z,74.83
2022-11-13T10:28:54.863Z,74.69
2022-11-13T10:29:17.800Z,74.69
2022-11-13T10:30:18.408Z,74.81
2022-11-13T10:31:17.882Z,74.76
2022-11-13T10:32:18.493Z,74.52
2022-11-13T10:33:17.893Z,74.29
2022-11-13T10:34:18.305Z,74.01
2022-11-13T10:35:17.888Z,73.62
2022-11-13T10:36:18.294Z,73.46
2022-11-13T10:37:17.842Z,73.47
2022-11-13T10:38:18.197Z,73.70
2022-11-13T10:39:17.430Z,73.38
2022-11-13T10:40:31.246Z,73.30
2022-11-13T10:41:17.873Z,73.23
2022-11-13T10:42:18.035Z,73.37
2022-11-13T10:43:17.397Z,73.33
2022-11-13T10:44:17.167Z,73.45
2022-11-13T10:45:18.928Z,73.41
2022-11-13T10:46:17.239Z,73.11
2022-11-13T10:47:26.533Z,72.95
2022-11-13T10:48:17.460Z,72.90
2022-11-13T10:49:17.575Z,72.81
2022-11-13T10:50:17.510Z,72.97
2022-11-13T10:51:17.827Z,72.95
2022-11-13T10:52:17.971Z,72.89
2022-11-13T10:53:18.195Z,72.73
2022-11-13T10:54:17.532Z,72.74
2022-11-13T10:55:17.680Z,72.73
2022-11-13T10:56:17.644Z,72.88
2022-11-13T10:57:17.577Z,72.93
2022-11-13T10:58:18.126Z,72.90
2022-11-13T10:59:17.491Z,72.85
2022-11-13T11:00:19.107Z,72.82
2022-11-13T11:01:17.674Z,73.00
2022-11-13T11:02:45.881Z,73.16
2022-11-13T11:03:18.227Z,73.16
2022-11-13T11:04:17.006Z,73.03
2022-11-13T11:05:17.485Z,72.89
2022-11-13T11:06:17.380Z,72.80
2022-11-13T11:07:27.640Z,72.63
2022-11-13T11:08:17.705Z,72.63
2022-11-13T11:09:18.162Z,72.59
2022-11-13T11:10:17.759Z,72.61
2022-11-13T11:11:18.043Z,72.72
2022-11-13T11:12:17.072Z,72.76
2022-11-13T11:13:17.599Z,72.77
2022-11-13T11:14:18.022Z,72.63
2022-11-13T11:15:17.603Z,72.23
2022-11-13T11:16:17.461Z,72.09
2022-11-13T11:17:17.992Z,72.23
2022-11-13T11:18:17.138Z,72.40
2022-11-13T11:19:17.632Z,72.42
2022-11-13T11:20:18.000Z,72.37
2022-11-13T11:21:17.777Z,72.27
2022-11-13T11:22:17.960Z,71.76
2022-11-13T11:23:18.306Z,71.27
2022-11-13T11:24:17.658Z,71.23
2022-11-13T11:25:18.291Z,71.15
2022-11-13T11:26:45.012Z,71.44
2022-11-13T11:27:17.516Z,71.44
2022-11-13T11:28:17.524Z,71.18
2022-11-13T11:29:18.042Z,71.16
2022-11-13T11:30:17.477Z,71.48
2022-11-13T11:31:18.032Z,71.39
2022-11-13T11:32:16.820Z,71.13
2022-11-13T11:33:18.069Z,70.65
2022-11-13T11:34:17.078Z,70.48
2022-11-13T11:35:17.398Z,70.48
2022-11-13T11:36:17.616Z,70.30
2022-11-13T11:37:17.932Z,70.02
2022-11-13T11:38:17.877Z,70.27
2022-11-13T11:39:17.955Z,70.34
2022-11-13T11:40:17.991Z,70.43
2022-11-13T11:41:22.934Z,70.22
2022-11-13T11:42:17.792Z,69.99
2022-11-13T11:43:17.840Z,70.07
2022-11-13T11:44:18.074Z,70.14
2022-11-13T11:45:17.620Z,70.09
2022-11-13T11:46:58.971Z,70.37
2022-11-13T11:47:18.656Z,70.37
2022-11-13T11:48:17.572Z,70.40
2022-11-13T11:49:17.946Z,70.32
2022-11-13T11:50:18.118Z,70.26
2022-11-13T11:51:17.430Z,70.31
2022-11-13T11:52:17.272Z,70.26
2022-11-13T11:53:17.795Z,69.55
2022-11-13T11:54:17.951Z,69.16
2022-11-13T11:55:18.308Z,68.90
2022-11-13T11:56:17.703Z,68.55
2022-11-13T11:57:17.872Z,68.52
2022-11-13T11:58:18.072Z,68.37
2022-11-13T11:59:17.634Z,68.31
2022-11-13T12:00:18.331Z,68.25
2022-11-13T12:01:18.191Z,68.16
2022-11-13T12:02:18.024Z,69.33
2022-11-13T12:03:17.653Z,70.33
2022-11-13T12:04:17.920Z,70.30
2022-11-13T12:05:26.059Z,71.43
2022-11-13T12:06:17.494Z,71.43
2022-11-13T12:07:18.408Z,71.01
2022-11-13T12:08:17.747Z,70.62
2022-11-13T12:09:18.054Z,70.68
2022-11-13T12:10:17.675Z,70.65
2022-11-13T12:11:17.934Z,70.28
2022-11-13T12:12:18.291Z,70.35
2022-11-13T12:13:17.584Z,70.25
2022-11-13T12:14:17.862Z,69.94
2022-11-13T12:15:18.178Z,69.58
2022-11-13T12:16:22.329Z,69.89
2022-11-13T12:17:23.237Z,69.83
2022-11-13T12:18:18.157Z,69.09
2022-11-13T12:19:17.571Z,68.81
2022-11-13T12:20:18.373Z,68.63
2022-11-13T12:21:17.885Z,68.36
2022-11-13T12:22:18.199Z,68.05
2022-11-13T12:23:17.892Z,67.87
2022-11-13T12:24:18.088Z,67.43
2022-11-13T12:25:17.869Z,67.08
2022-11-13T12:26:18.349Z,67
2022-11-13T12:27:17.804Z,66.79
2022-11-13T12:28:18.304Z,66.11
2022-11-13T12:29:17.707Z,65.80
2022-11-13T12:30:18.437Z,65.45
2022-11-13T12:31:18.078Z,64.97
2022-11-13T12:32:17.716Z,64.74
2022-11-13T12:33:23.323Z,65.08
2022-11-13T12:34:17.918Z,65.08
2022-11-13T12:35:18.275Z,65.11
2022-11-13T12:36:18.014Z,64.89
2022-11-13T12:37:17.978Z,64.70
2022-11-13T12:38:18.410Z,64.55
2022-11-13T12:39:17.893Z,64.51
2022-11-13T12:40:18.159Z,64.23
2022-11-13T12:41:18.046Z,64.18
2022-11-13T12:42:17.657Z,64.17
2022-11-13T12:43:17.914Z,64.05
2022-11-13T12:44:18.170Z,64.04
2022-11-13T12:45:17.737Z,63.98
2022-11-13T12:46:17.719Z,64.12
2022-11-13T12:47:25.579Z,64.42
2022-11-13T12:48:17.767Z,64.42
2022-11-13T12:49:18.048Z,64.37
2022-11-13T12:50:17.413Z,64.36
2022-11-13T12:51:31.320Z,64.38
2022-11-13T12:52:17.383Z,64.38
2022-11-13T12:53:31.115Z,64.62
2022-11-13T12:54:17.247Z,64.62
2022-11-13T12:55:31.198Z,64.37
2022-11-13T12:56:17.963Z,64.37
2022-11-13T12:57:37.159Z,63.92
2022-11-13T12:58:17.555Z,63.92
2022-11-13T12:59:37.014Z,63.65
2022-11-13T13:00:18.519Z,63.65